Time;durP1;ratioP1;P1;durP2;ratioP2;P2;SDS_P1;SDS_P2;PMS_P1;PMS_P2;Temp;Humidity;BMP_temperature;BMP_pressure;BME280_temperature;BME280_humidity;BME280_pressure;Samples;Min_cycle;Max_cycle;Signal;HPM_P1;HPM_P2
2022/01/14 00:02:19;;;;;;;185.55;22.63;;;;;;;;;;5069769;28;20392;-77
2022/01/14 00:04:45;;;;;;;204.60;22.48;;;;;;;;;;5069312;28;20066;-77
2022/01/14 00:07:12;;;;;;;202.82;22.75;;;;;;;;;;5052304;28;20045;-77
2022/01/14 00:09:39;;;;;;;198.88;23.00;;;;;;;;;;5053245;28;20037;-76
2022/01/14 00:12:11;;;;;;;187.90;23.00;;;;;;;;;;5069250;28;20137;-77
2022/01/14 00:14:40;;;;;;;209.00;23.15;;;;;;;;;;5069586;28;20044;-77
2022/01/14 00:17:15;;;;;;;163.40;22.70;;;;;;;;;;5069846;28;20558;-77
2022/01/14 00:19:42;;;;;;;202.13;25.67;;;;;;;;;;5069113;28;20479;-77
2022/01/14 00:22:13;;;;;;;166.25;22.23;;;;;;;;;;5052742;28;20044;-77
2022/01/14 00:35:24;;;;;;;183.73;24.23;;;;;;;;;;5083279;28;20036;-77
2022/01/14 00:37:50;;;;;;;145.25;21.30;;;;;;;;;;5048417;28;20040;-77
2022/01/14 00:40:16;;;;;;;181.02;24.95;;;;;;;;;;5049075;28;20048;-76
2022/01/14 00:42:42;;;;;;;174.18;25.50;;;;;;;;;;5065518;28;20427;-76
2022/01/14 00:45:10;;;;;;;148.05;23.55;;;;;;;;;;5049122;28;20048;-76
2022/01/14 00:47:37;;;;;;;147.23;25.05;;;;;;;;;;5048882;28;20121;-77
2022/01/14 00:50:11;;;;;;;145.38;25.58;;;;;;;;;;5048176;28;20079;-77
2022/01/14 00:52:38;;;;;;;137.43;24.48;;;;;;;;;;5065210;28;20041;-77
2022/01/14 00:55:04;;;;;;;143.80;24.88;;;;;;;;;;5048120;28;20057;-77
2022/01/14 01:00:16;;;;;;;117.47;24.40;;;;;;;;;;5082585;28;20443;-77
2022/01/14 01:02:42;;;;;;;125.72;26.25;;;;;;;;;;5065362;28;20484;-77
2022/01/14 01:05:09;;;;;;;126.20;25.20;;;;;;;;;;5048608;28;20041;-76
2022/01/14 01:07:37;;;;;;;116.63;25.05;;;;;;;;;;5047859;28;20048;-76
2022/01/14 01:10:04;;;;;;;112.55;24.75;;;;;;;;;;5048079;28;20556;-76
2022/01/14 01:13:09;;;;;;;119.35;26.63;;;;;;;;;;5048355;28;20052;-76
2022/01/14 01:15:22;;;;;;;119.85;26.48;;;;;;;;;;5045140;28;20083;-76
2022/01/14 01:17:48;;;;;;;116.60;27.58;;;;;;;;;;5064919;28;20072;-76
2022/01/14 01:20:18;;;;;;;108.55;26.27;;;;;;;;;;5064870;28;20649;-76
2022/01/14 01:22:47;;;;;;;118.53;28.17;;;;;;;;;;5047599;28;20454;-76
2022/01/14 01:25:15;;;;;;;123.32;27.90;;;;;;;;;;5048406;28;20051;-76
2022/01/14 01:27:43;;;;;;;122.90;27.90;;;;;;;;;;5064633;28;20049;-76
2022/01/14 01:30:16;;;;;;;137.88;28.08;;;;;;;;;;5048078;28;20076;-76
2022/01/14 01:32:46;;;;;;;143.93;29.08;;;;;;;;;;5067442;28;20071;-76
2022/01/14 01:35:13;;;;;;;118.07;27.85;;;;;;;;;;5068546;28;20052;-76
2022/01/14 01:37:39;;;;;;;123.65;27.02;;;;;;;;;;5067852;28;20044;-77
2022/01/14 01:40:05;;;;;;;113.28;26.33;;;;;;;;;;5067757;28;20127;-77
2022/01/14 01:42:32;;;;;;;126.93;27.42;;;;;;;;;;5051357;28;20056;-77
2022/01/14 01:44:59;;;;;;;109.80;25.65;;;;;;;;;;5050955;28;20083;-77
2022/01/14 01:47:26;;;;;;;115.45;24.73;;;;;;;;;;5068060;28;20330;-77
2022/01/14 01:49:52;;;;;;;117.47;24.95;;;;;;;;;;5050689;28;20068;-77
2022/01/14 01:52:18;;;;;;;108.55;23.63;;;;;;;;;;5051087;28;20106;-77
2022/01/14 01:54:44;;;;;;;120.97;23.83;;;;;;;;;;5050674;28;20040;-77
2022/01/14 01:57:10;;;;;;;119.85;24.10;;;;;;;;;;5051490;28;20032;-77
2022/01/14 01:59:36;;;;;;;118.22;23.48;;;;;;;;;;5067856;28;20056;-77
2022/01/14 02:02:03;;;;;;;120.95;23.20;;;;;;;;;;5067323;28;20041;-77
2022/01/14 02:04:29;;;;;;;103.85;22.27;;;;;;;;;;5067596;28;20401;-76
2022/01/14 02:06:56;;;;;;;94.38;21.25;;;;;;;;;;5066894;28;20051;-76
2022/01/14 02:09:23;;;;;;;78.93;21.13;;;;;;;;;;5032521;28;20045;-76
2022/01/14 02:11:50;;;;;;;93.95;20.67;;;;;;;;;;5047426;28;20068;-77
2022/01/14 02:14:53;;;;;;;83.15;20.20;;;;;;;;;;5047427;28;20052;-76
2022/01/14 02:17:35;;;;;;;84.18;19.65;;;;;;;;;;5081089;28;20090;-77
2022/01/14 02:22:50;;;;;;;91.45;20.52;;;;;;;;;;5080823;28;20049;-77
2022/01/14 02:25:16;;;;;;;81.25;20.58;;;;;;;;;;5047646;28;20056;-77
2022/01/14 02:27:44;;;;;;;73.53;19.80;;;;;;;;;;5047459;28;20047;-77
2022/01/14 02:30:10;;;;;;;81.03;20.50;;;;;;;;;;5047492;28;20045;-77
2022/01/14 02:32:37;;;;;;;76.65;19.95;;;;;;;;;;5068414;28;20036;-77
2022/01/14 02:35:03;;;;;;;78.63;19.40;;;;;;;;;;5071212;28;20090;-77
2022/01/14 02:37:29;;;;;;;78.80;19.48;;;;;;;;;;5054885;28;20480;-77
2022/01/14 02:39:55;;;;;;;82.80;19.80;;;;;;;;;;5071809;28;20131;-76
2022/01/14 02:42:22;;;;;;;76.25;19.38;;;;;;;;;;5071413;28;20044;-76
2022/01/14 02:44:49;;;;;;;85.70;20.23;;;;;;;;;;5071102;28;20052;-76
2022/01/14 02:47:17;;;;;;;83.05;19.58;;;;;;;;;;5071234;28;20508;-76
2022/01/14 02:49:43;;;;;;;76.65;18.75;;;;;;;;;;5053272;28;20048;-77
2022/01/14 02:52:09;;;;;;;82.00;20.27;;;;;;;;;;5071084;28;20160;-77
2022/01/14 02:54:51;;;;;;;84.22;19.70;;;;;;;;;;5054252;28;20518;-77
2022/01/14 02:57:17;;;;;;;66.43;19.05;;;;;;;;;;5071295;28;20045;-77
2022/01/14 02:59:43;;;;;;;83.03;19.58;;;;;;;;;;5070574;28;20040;-77
2022/01/14 03:02:10;;;;;;;70.30;19.38;;;;;;;;;;5064507;28;20041;-77
2022/01/14 03:04:39;;;;;;;67.25;19.17;;;;;;;;;;5069822;28;20082;-77
2022/01/14 03:07:06;;;;;;;74.30;20.05;;;;;;;;;;5069189;28;20104;-77
2022/01/14 03:09:32;;;;;;;77.45;19.17;;;;;;;;;;5070470;28;20521;-77
2022/01/14 03:12:00;;;;;;;79.88;21.02;;;;;;;;;;5070684;28;20129;-77
2022/01/14 03:14:26;;;;;;;77.70;19.98;;;;;;;;;;5070724;28;20393;-77
2022/01/14 03:16:53;;;;;;;79.80;21.33;;;;;;;;;;5071531;28;20037;-77
2022/01/14 03:19:23;;;;;;;73.75;19.30;;;;;;;;;;5070640;28;20123;-77
2022/01/14 03:21:52;;;;;;;73.25;19.98;;;;;;;;;;5070332;28;20119;-76
2022/01/14 03:26:47;;;;;;;70.45;20.77;;;;;;;;;;5053413;28;20052;-77
2022/01/14 03:29:14;;;;;;;77.15;20.38;;;;;;;;;;5070073;28;20067;-76
2022/01/14 03:31:40;;;;;;;71.93;19.90;;;;;;;;;;5054174;28;20585;-76
2022/01/14 03:34:07;;;;;;;71.40;20.27;;;;;;;;;;5053030;28;20044;-76
2022/01/14 03:36:33;;;;;;;71.35;19.65;;;;;;;;;;5070292;28;20113;-76
2022/01/14 03:38:59;;;;;;;78.05;21.02;;;;;;;;;;5052933;28;20063;-76
2022/01/14 03:41:25;;;;;;;85.80;21.40;;;;;;;;;;5069917;28;20086;-76
2022/01/14 03:43:52;;;;;;;79.65;21.85;;;;;;;;;;5069309;28;20127;-77
2022/01/14 03:46:18;;;;;;;67.25;19.35;;;;;;;;;;5069848;28;20127;-77
2022/01/14 03:48:44;;;;;;;79.38;19.92;;;;;;;;;;5069726;28;20138;-76
2022/01/14 03:51:12;;;;;;;69.75;18.85;;;;;;;;;;5069672;28;20072;-77
2022/01/14 03:53:38;;;;;;;68.00;19.35;;;;;;;;;;5069873;28;20080;-77
2022/01/14 03:56:04;;;;;;;69.22;19.95;;;;;;;;;;5052939;28;20495;-77
2022/01/14 03:58:30;;;;;;;65.78;19.17;;;;;;;;;;5069683;28;20082;-77
2022/01/14 04:00:56;;;;;;;74.53;19.75;;;;;;;;;;5070387;28;20126;-77
2022/01/14 04:03:23;;;;;;;72.60;20.30;;;;;;;;;;5069942;28;20040;-77
2022/01/14 04:05:49;;;;;;;72.80;19.25;;;;;;;;;;5068677;28;20087;-77
2022/01/14 04:08:15;;;;;;;70.22;20.38;;;;;;;;;;5069339;28;20479;-77
2022/01/14 04:10:42;;;;;;;69.43;20.83;;;;;;;;;;5069133;28;20052;-77
2022/01/14 04:13:18;;;;;;;71.97;19.75;;;;;;;;;;5052459;28;20119;-77
2022/01/14 04:15:46;;;;;;;70.03;20.50;;;;;;;;;;5069406;28;20123;-77
2022/01/14 04:18:17;;;;;;;64.40;20.48;;;;;;;;;;5069273;28;20036;-77
2022/01/14 04:20:45;;;;;;;69.03;21.20;;;;;;;;;;5069003;28;20056;-77
2022/01/14 04:23:12;;;;;;;68.05;20.35;;;;;;;;;;5070356;28;20087;-77
2022/01/14 04:25:38;;;;;;;68.07;21.10;;;;;;;;;;5052571;28;20441;-76
2022/01/14 04:28:05;;;;;;;61.67;20.25;;;;;;;;;;5068927;28;20400;-77
2022/01/14 04:30:31;;;;;;;55.78;19.73;;;;;;;;;;5068928;28;20086;-76
2022/01/14 04:32:58;;;;;;;66.07;21.58;;;;;;;;;;5069059;28;20568;-77
2022/01/14 04:35:24;;;;;;;52.03;19.27;;;;;;;;;;5069708;28;20530;-76
2022/01/14 04:37:50;;;;;;;60.15;21.63;;;;;;;;;;5069992;28;20040;-77
2022/01/14 04:40:17;;;;;;;64.95;20.85;;;;;;;;;;5069917;28;20136;-76
2022/01/14 04:42:44;;;;;;;59.60;19.98;;;;;;;;;;5052325;28;20047;-77
2022/01/14 04:45:14;;;;;;;57.83;20.67;;;;;;;;;;5068660;28;20052;-77
2022/01/14 04:47:46;;;;;;;54.42;20.17;;;;;;;;;;5052380;28;20094;-77
2022/01/14 04:50:13;;;;;;;61.22;20.75;;;;;;;;;;5068331;28;20060;-77
2022/01/14 04:52:40;;;;;;;53.20;20.42;;;;;;;;;;5068852;28;20045;-77
2022/01/14 04:55:07;;;;;;;59.42;19.92;;;;;;;;;;5034496;28;20135;-77
2022/01/14 04:57:33;;;;;;;53.40;19.77;;;;;;;;;;5068913;28;20200;-77
2022/01/14 04:59:59;;;;;;;52.20;20.42;;;;;;;;;;5067817;28;20052;-76
2022/01/14 05:02:26;;;;;;;55.90;20.52;;;;;;;;;;5063695;28;20526;-76
2022/01/14 05:04:55;;;;;;;55.80;20.55;;;;;;;;;;5050869;28;20059;-77
2022/01/14 05:07:25;;;;;;;51.72;19.77;;;;;;;;;;5050430;28;20097;-76
2022/01/14 05:12:30;;;;;;;45.08;20.17;;;;;;;;;;5068117;28;20154;-76
2022/01/14 05:14:56;;;;;;;49.65;20.20;;;;;;;;;;5068019;28;20036;-76
2022/01/14 05:17:22;;;;;;;55.65;19.17;;;;;;;;;;5068202;28;20059;-76
2022/01/14 05:19:48;;;;;;;51.78;20.70;;;;;;;;;;5051401;28;20051;-76
2022/01/14 05:22:15;;;;;;;46.72;20.77;;;;;;;;;;5068362;28;20052;-76
2022/01/14 05:24:41;;;;;;;50.85;19.60;;;;;;;;;;5068374;28;20052;-76
2022/01/14 05:27:07;;;;;;;47.03;19.15;;;;;;;;;;5067571;28;20566;-76
2022/01/14 05:29:33;;;;;;;52.17;19.58;;;;;;;;;;5068457;28;20507;-77
2022/01/14 05:32:04;;;;;;;56.70;20.58;;;;;;;;;;5050987;28;20090;-77
2022/01/14 05:34:34;;;;;;;49.05;20.05;;;;;;;;;;5068543;28;20055;-77
2022/01/14 05:37:01;;;;;;;46.60;18.77;;;;;;;;;;5050986;28;20070;-76
2022/01/14 05:39:27;;;;;;;54.22;20.63;;;;;;;;;;5051580;28;20109;-76
2022/01/14 05:41:55;;;;;;;51.22;20.25;;;;;;;;;;5067790;28;20526;-76
2022/01/14 05:44:23;;;;;;;50.30;19.08;;;;;;;;;;5067943;28;20135;-76
2022/01/14 05:46:49;;;;;;;49.90;20.48;;;;;;;;;;5067759;28;20416;-76
2022/01/14 05:49:15;;;;;;;53.00;20.33;;;;;;;;;;5067662;28;20047;-76
2022/01/14 05:51:41;;;;;;;45.65;20.40;;;;;;;;;;5068166;28;20412;-76
2022/01/14 05:54:07;;;;;;;51.53;20.33;;;;;;;;;;5067606;28;20059;-76
2022/01/14 05:56:33;;;;;;;48.90;20.38;;;;;;;;;;5067888;28;20045;-76
2022/01/14 05:58:59;;;;;;;47.97;20.45;;;;;;;;;;5067499;28;20040;-76
2022/01/14 06:01:25;;;;;;;50.15;20.05;;;;;;;;;;5051256;28;20051;-76
2022/01/14 06:03:52;;;;;;;44.05;19.40;;;;;;;;;;5067402;28;20044;-76
2022/01/14 06:06:18;;;;;;;52.42;19.75;;;;;;;;;;5069591;28;20396;-76
2022/01/14 06:08:48;;;;;;;52.33;19.75;;;;;;;;;;5073239;28;20090;-76
2022/01/14 06:11:14;;;;;;;47.78;20.40;;;;;;;;;;5071042;28;20050;-76
2022/01/14 06:13:40;;;;;;;46.67;20.30;;;;;;;;;;5054547;28;20043;-76
2022/01/14 06:16:06;;;;;;;49.45;21.50;;;;;;;;;;5072289;28;20047;-76
2022/01/14 06:18:32;;;;;;;40.97;20.00;;;;;;;;;;5071886;28;20040;-76
2022/01/14 06:20:58;;;;;;;53.20;21.50;;;;;;;;;;5071320;28;20079;-76
2022/01/14 06:23:24;;;;;;;45.47;20.65;;;;;;;;;;5071478;28;20074;-76
2022/01/14 06:25:50;;;;;;;54.00;20.42;;;;;;;;;;5072235;28;20052;-76
2022/01/14 06:28:17;;;;;;;53.25;21.95;;;;;;;;;;5071535;28;20045;-76
2022/01/14 06:30:43;;;;;;;50.53;20.88;;;;;;;;;;5054320;28;20044;-77
2022/01/14 06:33:09;;;;;;;45.28;20.13;;;;;;;;;;5072499;28;20450;-76
2022/01/14 06:35:35;;;;;;;44.15;20.52;;;;;;;;;;5054803;28;20069;-76
2022/01/14 06:38:01;;;;;;;45.55;20.42;;;;;;;;;;5054677;28;20488;-76
2022/01/14 06:40:28;;;;;;;49.72;21.73;;;;;;;;;;5071058;28;20040;-76
2022/01/14 06:42:54;;;;;;;49.72;21.67;;;;;;;;;;5070777;28;20079;-76
2022/01/14 06:45:21;;;;;;;45.90;21.70;;;;;;;;;;5070971;28;20132;-76
2022/01/14 06:47:47;;;;;;;45.90;20.58;;;;;;;;;;5054672;28;20502;-76
2022/01/14 06:50:13;;;;;;;49.13;21.63;;;;;;;;;;5070208;28;20091;-76
2022/01/14 06:52:39;;;;;;;50.20;21.13;;;;;;;;;;5071014;28;20041;-76
2022/01/14 06:55:06;;;;;;;51.92;22.73;;;;;;;;;;5070933;28;20399;-76
2022/01/14 06:57:32;;;;;;;50.50;22.13;;;;;;;;;;5071342;28;20466;-76
2022/01/14 06:59:58;;;;;;;49.97;22.33;;;;;;;;;;5070049;28;20086;-76
2022/01/14 07:02:24;;;;;;;54.53;23.13;;;;;;;;;;5070591;28;20079;-76
2022/01/14 07:04:50;;;;;;;51.38;22.65;;;;;;;;;;5070406;28;20037;-76
2022/01/14 07:07:16;;;;;;;50.72;21.98;;;;;;;;;;5053826;28;20040;-76
2022/01/14 07:09:57;;;;;;;52.33;21.92;;;;;;;;;;5071462;28;20051;-76
2022/01/14 07:12:25;;;;;;;53.28;21.05;;;;;;;;;;5070438;28;20123;-76
2022/01/14 07:14:51;;;;;;;52.15;21.30;;;;;;;;;;5070048;28;20032;-76
2022/01/14 07:17:17;;;;;;;47.35;20.85;;;;;;;;;;5053357;28;20083;-76
2022/01/14 07:19:43;;;;;;;58.38;21.10;;;;;;;;;;5070773;28;20049;-76
2022/01/14 07:22:09;;;;;;;48.47;21.30;;;;;;;;;;5070124;28;20500;-76
2022/01/14 07:24:36;;;;;;;44.75;21.02;;;;;;;;;;5054120;28;20527;-76
2022/01/14 07:27:03;;;;;;;50.13;20.17;;;;;;;;;;5070026;28;20119;-76
2022/01/14 07:29:29;;;;;;;43.22;20.73;;;;;;;;;;5053707;28;20133;-76
2022/01/14 07:31:55;;;;;;;52.00;22.55;;;;;;;;;;5070040;28;20052;-76
2022/01/14 07:34:21;;;;;;;51.65;20.90;;;;;;;;;;5070785;28;20453;-76
2022/01/14 07:36:47;;;;;;;57.80;21.35;;;;;;;;;;5070452;28;20451;-76
2022/01/14 07:39:13;;;;;;;41.58;20.15;;;;;;;;;;5053351;28;20044;-76
2022/01/14 07:41:39;;;;;;;47.33;20.30;;;;;;;;;;5070025;28;20082;-76
2022/01/14 07:44:05;;;;;;;46.63;20.13;;;;;;;;;;5070304;28;20385;-76
2022/01/14 07:46:31;;;;;;;48.40;21.15;;;;;;;;;;5071414;28;20071;-76
2022/01/14 07:48:58;;;;;;;48.42;19.38;;;;;;;;;;5069435;28;20048;-76
2022/01/14 07:51:24;;;;;;;41.28;18.98;;;;;;;;;;5069483;28;20052;-76
2022/01/14 07:53:50;;;;;;;51.35;19.88;;;;;;;;;;5069374;28;20194;-76
2022/01/14 07:56:16;;;;;;;50.42;18.20;;;;;;;;;;5053452;28;20071;-76
2022/01/14 07:58:43;;;;;;;48.38;19.83;;;;;;;;;;5070104;28;20069;-76
2022/01/14 08:01:09;;;;;;;41.88;19.50;;;;;;;;;;5069359;28;20044;-76
2022/01/14 08:03:35;;;;;;;48.28;20.10;;;;;;;;;;5070223;28;20412;-76
2022/01/14 08:06:03;;;;;;;44.92;19.13;;;;;;;;;;5052547;28;20373;-76
2022/01/14 08:08:29;;;;;;;45.35;18.40;;;;;;;;;;5069880;28;20514;-76
2022/01/14 08:10:56;;;;;;;43.95;18.08;;;;;;;;;;5069243;28;20130;-76
2022/01/14 08:13:22;;;;;;;43.47;17.75;;;;;;;;;;5070897;28;20036;-76
2022/01/14 08:15:48;;;;;;;42.60;18.25;;;;;;;;;;5069583;28;20216;-76
2022/01/14 08:18:14;;;;;;;37.13;17.40;;;;;;;;;;5069079;28;20041;-76
2022/01/14 08:20:40;;;;;;;40.88;16.63;;;;;;;;;;5052997;28;20512;-76
2022/01/14 08:23:06;;;;;;;36.13;16.23;;;;;;;;;;5068975;28;20119;-76
2022/01/14 08:25:32;;;;;;;39.70;16.70;;;;;;;;;;5069319;28;20036;-75
2022/01/14 08:27:58;;;;;;;33.80;15.93;;;;;;;;;;5069084;28;20037;-76
2022/01/14 08:30:25;;;;;;;37.97;16.52;;;;;;;;;;5068223;28;20425;-76
2022/01/14 08:32:51;;;;;;;39.72;15.80;;;;;;;;;;5068917;28;20040;-76
2022/01/14 08:35:17;;;;;;;37.28;14.60;;;;;;;;;;5069066;28;20086;-76
2022/01/14 08:37:43;;;;;;;35.28;14.73;;;;;;;;;;5052578;28;20445;-76
2022/01/14 08:40:10;;;;;;;34.90;13.88;;;;;;;;;;5069319;28;20553;-76
2022/01/14 08:42:37;;;;;;;32.42;13.40;;;;;;;;;;5069092;28;20075;-76
2022/01/14 08:45:04;;;;;;;40.83;12.88;;;;;;;;;;5068582;28;20051;-76
2022/01/14 08:47:31;;;;;;;36.95;13.57;;;;;;;;;;5052043;28;20048;-76
2022/01/14 08:49:57;;;;;;;34.28;12.95;;;;;;;;;;5051485;28;20047;-76
2022/01/14 08:52:23;;;;;;;31.52;12.00;;;;;;;;;;5051869;28;20070;-76
2022/01/14 08:54:49;;;;;;;32.22;12.00;;;;;;;;;;5068766;28;20366;-76
2022/01/14 08:57:16;;;;;;;26.60;11.52;;;;;;;;;;5052209;28;20037;-76
2022/01/14 08:59:42;;;;;;;30.10;11.70;;;;;;;;;;5068746;28;20511;-76
2022/01/14 09:02:08;;;;;;;30.35;12.10;;;;;;;;;;5067884;28;20045;-76
2022/01/14 09:04:34;;;;;;;31.77;11.18;;;;;;;;;;5052221;28;20040;-76
2022/01/14 09:07:01;;;;;;;28.45;10.65;;;;;;;;;;5050825;28;20083;-76
2022/01/14 09:09:27;;;;;;;30.50;10.35;;;;;;;;;;5068023;28;20422;-75
2022/01/14 09:11:54;;;;;;;26.83;10.57;;;;;;;;;;5034983;28;20044;-76
2022/01/14 09:14:21;;;;;;;29.30;10.77;;;;;;;;;;5051946;28;20135;-76
2022/01/14 09:16:47;;;;;;;26.50;9.90;;;;;;;;;;5068420;28;20086;-76
2022/01/14 09:19:14;;;;;;;26.30;9.70;;;;;;;;;;5067609;28;20043;-76
2022/01/14 09:21:42;;;;;;;21.00;8.85;;;;;;;;;;5068166;28;20048;-76
2022/01/14 09:24:08;;;;;;;24.40;9.27;;;;;;;;;;5051671;28;20495;-76
2022/01/14 09:26:35;;;;;;;22.05;9.43;;;;;;;;;;5068201;28;20044;-76
2022/01/14 09:29:02;;;;;;;25.33;10.38;;;;;;;;;;5069141;28;20040;-76
2022/01/14 09:31:28;;;;;;;22.35;8.95;;;;;;;;;;5068282;28;20535;-76
2022/01/14 09:33:55;;;;;;;24.27;9.00;;;;;;;;;;5050805;28;20125;-76
2022/01/14 09:36:21;;;;;;;30.48;10.13;;;;;;;;;;5068262;28;20503;-76
2022/01/14 09:38:47;;;;;;;23.52;9.27;;;;;;;;;;5068119;28;20044;-76
2022/01/14 09:41:14;;;;;;;21.63;9.18;;;;;;;;;;5068571;28;20053;-76
2022/01/14 09:43:41;;;;;;;24.73;9.27;;;;;;;;;;5051532;28;20504;-76
2022/01/14 09:46:08;;;;;;;21.52;7.85;;;;;;;;;;5067847;28;20483;-76
2022/01/14 09:48:34;;;;;;;22.88;8.05;;;;;;;;;;5067623;28;20076;-76
2022/01/14 09:51:02;;;;;;;20.67;8.40;;;;;;;;;;5067387;28;20500;-76
2022/01/14 09:53:29;;;;;;;21.13;8.02;;;;;;;;;;5067934;28;20254;-76
2022/01/14 09:55:55;;;;;;;24.75;9.52;;;;;;;;;;5067432;28;20076;-76
2022/01/14 09:58:26;;;;;;;22.70;7.97;;;;;;;;;;5067969;28;20040;-76
2022/01/14 10:01:06;;;;;;;18.77;8.35;;;;;;;;;;5067098;28;20049;-75
2022/01/14 10:03:32;;;;;;;19.95;7.47;;;;;;;;;;5067735;28;20076;-76
2022/01/14 10:05:58;;;;;;;20.58;8.68;;;;;;;;;;5067265;28;20055;-76
2022/01/14 10:08:27;;;;;;;20.90;7.53;;;;;;;;;;5051531;28;20052;-76
2022/01/14 10:10:58;;;;;;;20.17;7.28;;;;;;;;;;5067263;28;20408;-76
2022/01/14 10:13:28;;;;;;;24.70;7.63;;;;;;;;;;5051322;28;20045;-76
2022/01/14 10:15:59;;;;;;;26.42;7.28;;;;;;;;;;5067004;28;20048;-76
2022/01/14 10:18:26;;;;;;;18.17;6.85;;;;;;;;;;5067748;28;20036;-76
2022/01/14 10:20:52;;;;;;;18.27;5.85;;;;;;;;;;5067008;28;20040;-76
2022/01/14 10:23:38;;;;;;;16.48;6.05;;;;;;;;;;5051511;28;20507;-76
2022/01/14 10:26:04;;;;;;;14.52;5.55;;;;;;;;;;5067114;28;20048;-76
2022/01/14 10:28:30;;;;;;;20.30;6.32;;;;;;;;;;5050906;28;20044;-76
2022/01/14 10:30:56;;;;;;;19.35;6.30;;;;;;;;;;5066950;28;20049;-76
2022/01/14 10:33:32;;;;;;;22.48;6.38;;;;;;;;;;5068796;28;20484;-76
2022/01/14 10:35:58;;;;;;;14.15;5.50;;;;;;;;;;5066967;28;20043;-76
2022/01/14 10:38:26;;;;;;;14.63;5.50;;;;;;;;;;5067729;28;20040;-76
2022/01/14 10:40:53;;;;;;;14.82;5.07;;;;;;;;;;5066875;28;20183;-76
2022/01/14 10:43:24;;;;;;;15.60;5.45;;;;;;;;;;5067607;28;20049;-76
2022/01/14 10:45:51;;;;;;;14.70;5.38;;;;;;;;;;5067039;28;20048;-76
2022/01/14 10:48:37;;;;;;;16.38;5.55;;;;;;;;;;5067336;28;20045;-76
2022/01/14 10:51:07;;;;;;;15.43;5.93;;;;;;;;;;5066538;28;20511;-76
2022/01/14 10:53:34;;;;;;;12.30;5.05;;;;;;;;;;5069113;28;20044;-76
2022/01/14 10:56:00;;;;;;;16.27;5.00;;;;;;;;;;5070318;28;20049;-76
2022/01/14 10:58:27;;;;;;;16.38;5.13;;;;;;;;;;5071155;28;20052;-76
2022/01/14 11:00:56;;;;;;;15.25;4.80;;;;;;;;;;5070544;28;20052;-76
2022/01/14 11:03:42;;;;;;;15.02;5.15;;;;;;;;;;5070930;28;20041;-76
2022/01/14 11:06:25;;;;;;;12.15;5.22;;;;;;;;;;5070770;28;20582;-76
2022/01/14 11:09:11;;;;;;;15.98;5.38;;;;;;;;;;5071987;28;20511;-76
2022/01/14 11:11:38;;;;;;;16.92;5.35;;;;;;;;;;5072801;28;20044;-76
2022/01/14 11:14:05;;;;;;;13.63;4.50;;;;;;;;;;5070269;28;20036;-76
2022/01/14 11:16:31;;;;;;;15.07;4.40;;;;;;;;;;5054071;28;20492;-76
2022/01/14 11:18:59;;;;;;;14.13;4.47;;;;;;;;;;5070696;28;20472;-76
2022/01/14 11:24:30;;;;;;;7.80;3.60;;;;;;;;;;5070256;28;20127;-76
2022/01/14 11:27:07;;;;;;;19.45;3.63;;;;;;;;;;5069858;28;20072;-76
2022/01/14 11:29:39;;;;;;;13.95;3.50;;;;;;;;;;5070435;28;20457;-76
2022/01/14 11:32:07;;;;;;;8.82;3.30;;;;;;;;;;5070363;28;20128;-76
2022/01/14 11:34:35;;;;;;;9.80;3.22;;;;;;;;;;5070679;28;20052;-76
2022/01/14 11:37:02;;;;;;;13.35;3.42;;;;;;;;;;5052948;28;20138;-76
2022/01/14 11:39:31;;;;;;;12.02;3.50;;;;;;;;;;5053439;28;20041;-76
2022/01/14 11:42:08;;;;;;;14.52;3.75;;;;;;;;;;5069919;28;20068;-76
2022/01/14 11:44:44;;;;;;;11.35;3.40;;;;;;;;;;5070382;28;20041;-77
2022/01/14 11:47:22;;;;;;;12.45;3.88;;;;;;;;;;5069805;28;20097;-77
2022/01/14 11:49:48;;;;;;;16.10;3.78;;;;;;;;;;5053210;28;20132;-76
2022/01/14 11:52:14;;;;;;;10.77;3.50;;;;;;;;;;5036216;28;20135;-76
2022/01/14 11:54:40;;;;;;;18.30;3.78;;;;;;;;;;5053332;28;20045;-76
2022/01/14 11:57:07;;;;;;;12.68;4.00;;;;;;;;;;5069623;28;20040;-76
2022/01/14 11:59:33;;;;;;;10.60;3.85;;;;;;;;;;5104089;28;20621;-76
2022/01/14 12:01:59;;;;;;;14.65;3.97;;;;;;;;;;5069164;28;20032;-76
2022/01/14 12:04:44;;;;;;;13.50;3.58;;;;;;;;;;5069515;28;20048;-77
2022/01/14 12:07:10;;;;;;;15.40;3.63;;;;;;;;;;5069093;28;20040;-76
2022/01/14 12:09:56;;;;;;;13.52;3.33;;;;;;;;;;5069894;28;20618;-76
2022/01/14 12:12:23;;;;;;;12.32;4.18;;;;;;;;;;5069677;28;20090;-76
2022/01/14 12:15:01;;;;;;;11.32;3.55;;;;;;;;;;5069990;28;20076;-76
2022/01/14 12:17:33;;;;;;;12.85;3.88;;;;;;;;;;5069476;28;20036;-76
2022/01/14 12:20:11;;;;;;;14.15;3.80;;;;;;;;;;5052391;28;20040;-76
2022/01/14 12:22:38;;;;;;;14.27;3.70;;;;;;;;;;5069647;28;20500;-76
2022/01/14 12:25:05;;;;;;;12.13;3.45;;;;;;;;;;5068762;28;20044;-76
2022/01/14 12:27:40;;;;;;;26.13;5.15;;;;;;;;;;5069231;28;20101;-76
2022/01/14 12:30:07;;;;;;;15.57;3.50;;;;;;;;;;5068832;28;20060;-76
2022/01/14 12:32:35;;;;;;;11.63;3.40;;;;;;;;;;5069374;28;20093;-76
2022/01/14 12:35:01;;;;;;;13.23;3.67;;;;;;;;;;5068715;28;20043;-76
2022/01/14 12:37:31;;;;;;;11.05;3.53;;;;;;;;;;5052399;28;20043;-76
2022/01/14 12:40:01;;;;;;;12.20;3.33;;;;;;;;;;5052090;28;20048;-76
2022/01/14 12:42:28;;;;;;;15.05;3.90;;;;;;;;;;5068967;28;20036;-76
2022/01/14 12:44:54;;;;;;;14.48;3.47;;;;;;;;;;5052404;28;20040;-76
2022/01/14 12:47:24;;;;;;;13.18;3.40;;;;;;;;;;5069072;28;20044;-76
2022/01/14 12:49:51;;;;;;;14.00;3.70;;;;;;;;;;5052739;28;20047;-76
2022/01/14 12:52:27;;;;;;;13.27;4.43;;;;;;;;;;5068164;28;20060;-76
2022/01/14 12:54:53;;;;;;;11.98;4.07;;;;;;;;;;5069898;28;20047;-76
2022/01/14 12:57:22;;;;;;;13.25;4.10;;;;;;;;;;5068912;28;20032;-76
2022/01/14 12:59:49;;;;;;;10.40;3.65;;;;;;;;;;5051967;28;20083;-76
2022/01/14 13:02:16;;;;;;;17.92;3.53;;;;;;;;;;5051800;28;20502;-76
2022/01/14 13:04:42;;;;;;;17.02;4.28;;;;;;;;;;5068213;28;20040;-76
2022/01/14 13:07:11;;;;;;;9.95;3.90;;;;;;;;;;5068265;28;20040;-76
2022/01/14 13:09:38;;;;;;;13.77;3.72;;;;;;;;;;5068661;28;20044;-76
2022/01/14 13:12:06;;;;;;;12.43;3.83;;;;;;;;;;5068040;28;20051;-76
2022/01/14 13:14:35;;;;;;;16.67;4.45;;;;;;;;;;5052204;28;20384;-76
2022/01/14 13:17:03;;;;;;;12.10;3.50;;;;;;;;;;5067515;28;20452;-76
2022/01/14 13:19:34;;;;;;;13.00;3.75;;;;;;;;;;5051599;28;20044;-76
2022/01/14 13:22:01;;;;;;;14.15;3.75;;;;;;;;;;5068293;28;20492;-76
2022/01/14 13:24:28;;;;;;;17.52;4.15;;;;;;;;;;5068351;28;20047;-76
2022/01/14 13:27:01;;;;;;;15.45;4.07;;;;;;;;;;5068332;28;20491;-76
2022/01/14 13:29:33;;;;;;;18.65;4.57;;;;;;;;;;5068254;28;20388;-76
2022/01/14 13:32:00;;;;;;;11.45;4.18;;;;;;;;;;5067770;28;20434;-76
2022/01/14 13:34:26;;;;;;;20.17;4.25;;;;;;;;;;5069503;28;20037;-76
2022/01/14 13:36:52;;;;;;;14.98;4.78;;;;;;;;;;5069396;28;20076;-76
2022/01/14 13:39:20;;;;;;;12.43;4.45;;;;;;;;;;5051276;28;20036;-76
2022/01/14 13:41:46;;;;;;;12.30;4.07;;;;;;;;;;5051531;28;20056;-76
2022/01/14 13:44:20;;;;;;;17.13;3.90;;;;;;;;;;5050610;28;20047;-76
2022/01/14 13:46:49;;;;;;;16.88;3.90;;;;;;;;;;5069140;28;20033;-76
2022/01/14 13:49:20;;;;;;;16.63;4.45;;;;;;;;;;5067554;28;20055;-76
2022/01/14 13:52:00;;;;;;;17.25;3.80;;;;;;;;;;5051173;28;20052;-76
2022/01/14 13:54:26;;;;;;;18.48;4.20;;;;;;;;;;5067812;28;20170;-76
2022/01/14 13:56:52;;;;;;;11.27;3.65;;;;;;;;;;5051340;28;20461;-76
2022/01/14 13:59:21;;;;;;;15.32;3.97;;;;;;;;;;5067518;28;20032;-77
2022/01/14 14:01:53;;;;;;;13.60;3.75;;;;;;;;;;5067892;28;20036;-76
2022/01/14 14:04:27;;;;;;;13.90;3.83;;;;;;;;;;5067793;28;20040;-76
2022/01/14 14:07:05;;;;;;;17.95;3.83;;;;;;;;;;5067665;28;20067;-76
2022/01/14 14:09:40;;;;;;;16.70;3.80;;;;;;;;;;5067495;28;20060;-76
2022/01/14 14:12:37;;;;;;;14.82;3.72;;;;;;;;;;5051986;28;20555;-76
2022/01/14 14:17:44;;;;;;;15.48;4.05;;;;;;;;;;5067904;28;20392;-76
2022/01/14 14:20:10;;;;;;;12.98;3.80;;;;;;;;;;5050549;28;20041;-76
2022/01/14 14:22:39;;;;;;;14.00;3.45;;;;;;;;;;5067741;28;20051;-76
2022/01/14 14:25:10;;;;;;;20.27;4.30;;;;;;;;;;5067128;28;20048;-76
2022/01/14 14:27:38;;;;;;;16.27;4.15;;;;;;;;;;5069828;28;20127;-76
2022/01/14 14:30:10;;;;;;;17.23;3.90;;;;;;;;;;5071106;28;20047;-76
2022/01/14 14:32:37;;;;;;;17.75;4.43;;;;;;;;;;5071676;28;20037;-76
2022/01/14 14:35:17;;;;;;;18.60;3.97;;;;;;;;;;5070915;28;20361;-76
2022/01/14 14:37:47;;;;;;;23.80;4.22;;;;;;;;;;5071466;28;20044;-76
2022/01/14 14:40:17;;;;;;;19.00;4.63;;;;;;;;;;5070675;28;20082;-76
2022/01/14 14:42:44;;;;;;;19.58;4.32;;;;;;;;;;5071387;28;20052;-76
2022/01/14 14:45:10;;;;;;;21.35;4.45;;;;;;;;;;5070450;28;20162;-76
2022/01/14 14:47:36;;;;;;;20.98;4.53;;;;;;;;;;5070675;28;20072;-76
2022/01/14 14:50:04;;;;;;;15.60;4.40;;;;;;;;;;5037689;28;20511;-76
2022/01/14 14:52:30;;;;;;;17.67;4.30;;;;;;;;;;5072405;28;20091;-76
2022/01/14 14:54:56;;;;;;;20.33;4.50;;;;;;;;;;5070167;28;20048;-76